Time;durP1;ratioP1;P1;durP2;ratioP2;P2;SDS_P1;SDS_P2;PMS_P1;PMS_P2;Temp;Humidity;BMP_temperature;BMP_pressure;BME280_temperature;BME280_humidity;BME280_pressure;Samples;Min_cycle;Max_cycle;Signal;HPM_P1;HPM_P2
2022/04/05 00:00:27;;;;;;;0.00;0.00;;;;;;;5.54;56.29;98310.59;5031026;28;20207;-49
2022/04/05 00:02:55;;;;;;;0.00;0.00;;;;;;;5.61;56.11;98302.22;5031400;28;20192;-50
2022/04/05 00:05:22;;;;;;;0.00;0.00;;;;;;;5.59;56.07;98316.22;5030552;28;20280;-49
2022/04/05 00:07:48;;;;;;;0.00;0.00;;;;;;;5.59;56.59;98298.09;5030968;28;20238;-48
2022/04/05 00:10:15;;;;;;;0.00;0.00;;;;;;;5.55;56.13;98307.91;5031132;28;20191;-48
2022/04/05 00:12:43;;;;;;;0.00;0.00;;;;;;;5.56;56.40;98278.47;5031107;28;20222;-49
2022/04/05 00:15:10;;;;;;;0.00;0.00;;;;;;;5.59;56.75;98279.97;5030742;28;20204;-49
2022/04/05 00:17:37;;;;;;;0.00;0.00;;;;;;;5.60;55.73;98279.88;5031030;28;20210;-49
2022/04/05 00:20:08;;;;;;;0.00;0.00;;;;;;;5.60;56.91;98284.22;5018707;28;20669;-49
2022/04/05 00:22:35;;;;;;;0.00;0.00;;;;;;;5.57;57.99;98281.88;5009292;28;20735;-51
2022/04/05 00:25:03;;;;;;;0.00;0.00;;;;;;;5.49;59.00;98273.91;5006385;28;20206;-49
2022/04/05 00:27:29;;;;;;;0.00;0.00;;;;;;;5.47;58.38;98276.66;4998935;28;20196;-50
2022/04/05 00:29:59;;;;;;;0.00;0.00;;;;;;;5.47;58.26;98269.69;4998602;28;20219;-51
2022/04/05 00:32:26;;;;;;;0.00;0.00;;;;;;;5.46;58.26;98265.47;5000863;28;20657;-49
2022/04/05 00:34:53;;;;;;;0.00;0.00;;;;;;;5.44;57.25;98269.94;4998920;28;20210;-49
2022/04/05 00:37:21;;;;;;;0.00;0.00;;;;;;;5.49;58.35;98276.50;4999563;28;20195;-48
2022/04/05 00:39:50;;;;;;;0.00;0.00;;;;;;;5.44;59.91;98271.72;5000779;28;20207;-49
2022/04/05 00:42:18;;;;;;;0.00;0.00;;;;;;;5.40;60.29;98273.72;4999878;28;20248;-49
2022/04/05 00:44:46;;;;;;;0.00;0.00;;;;;;;5.37;59.55;98261.03;4998114;28;20220;-50
2022/04/05 00:47:21;;;;;;;0.00;0.00;;;;;;;5.41;58.93;98279.75;5000816;28;20195;-48
2022/04/05 00:49:49;;;;;;;0.00;0.00;;;;;;;5.40;58.87;98268.56;5000496;28;20208;-48
2022/04/05 00:52:17;;;;;;;0.00;0.00;;;;;;;5.48;58.95;98278.28;4999710;28;20196;-50
2022/04/05 00:54:47;;;;;;;0.00;0.00;;;;;;;5.45;58.64;98261.22;4999056;28;20212;-47
2022/04/05 00:57:16;;;;;;;0.00;0.00;;;;;;;5.44;59.20;98274.31;5030579;28;20254;-50
2022/04/05 00:59:44;;;;;;;14.23;7.87;;;;;;;5.40;59.28;98259.97;5010681;28;20198;-52
2022/04/05 01:02:13;;;;;;;0.00;0.00;;;;;;;5.41;58.81;98246.91;5014749;28;20196;-48
2022/04/05 01:04:42;;;;;;;0.00;0.00;;;;;;;5.38;60.37;98252.31;5014137;28;20224;-48
2022/04/05 01:07:11;;;;;;;0.00;0.00;;;;;;;5.38;59.62;98262.69;5015215;28;20205;-49
2022/04/05 01:09:39;;;;;;;0.00;0.00;;;;;;;5.33;59.54;98264.81;5030217;28;20199;-48
2022/04/05 01:12:09;;;;;;;0.00;0.00;;;;;;;5.32;59.82;98256.25;5034532;28;20216;-48
2022/04/05 01:14:37;;;;;;;0.00;0.00;;;;;;;5.35;59.87;98264.72;5034058;28;20208;-48
2022/04/05 01:17:04;;;;;;;0.00;0.00;;;;;;;5.33;59.90;98257.06;5034496;28;20529;-49
2022/04/05 01:19:32;;;;;;;0.00;0.00;;;;;;;5.36;60.41;98259.41;5034884;28;20191;-48
2022/04/05 01:21:59;;;;;;;0.00;0.00;;;;;;;5.36;59.96;98253.41;5034358;28;20180;-48
2022/04/05 01:24:28;;;;;;;0.00;0.00;;;;;;;5.34;60.29;98248.34;5033796;28;20226;-48
2022/04/05 01:26:56;;;;;;;0.00;0.00;;;;;;;5.37;60.41;98244.72;5033211;28;20667;-49
2022/04/05 01:29:24;;;;;;;0.00;0.00;;;;;;;5.42;59.01;98247.72;5034477;28;20263;-50
2022/04/05 01:31:54;;;;;;;12.33;8.10;;;;;;;5.41;59.44;98246.09;5034157;28;20644;-49
2022/04/05 01:34:23;;;;;;;10.53;7.30;;;;;;;5.45;59.35;98253.47;5034137;28;20218;-51
2022/04/05 01:36:51;;;;;;;10.53;7.40;;;;;;;5.46;58.64;98243.94;5034224;28;20221;-52
2022/04/05 01:39:20;;;;;;;11.10;8.07;;;;;;;5.50;59.19;98247.09;5034092;28;20188;-50
2022/04/05 01:41:52;;;;;;;11.50;7.90;;;;;;;5.49;59.86;98235.09;5033912;28;20197;-51
2022/04/05 01:44:22;;;;;;;12.23;7.00;;;;;;;5.49;59.73;98242.84;5033618;28;20215;-52
2022/04/05 01:46:49;;;;;;;11.87;7.33;;;;;;;5.46;60.14;98223.22;5034221;28;20188;-52
2022/04/05 01:49:16;;;;;;;11.93;7.70;;;;;;;5.44;60.80;98228.53;5033813;28;20215;-52
2022/04/05 01:51:45;;;;;;;13.00;7.00;;;;;;;5.43;60.32;98224.28;5032986;28;20644;-50
2022/04/05 01:54:15;;;;;;;0.00;0.00;;;;;;;5.49;59.31;98227.31;5033322;28;20222;-51
2022/04/05 01:56:43;;;;;;;0.00;0.00;;;;;;;5.47;59.30;98220.50;5034163;28;20262;-50
2022/04/05 01:59:12;;;;;;;0.00;0.00;;;;;;;5.47;59.66;98215.31;5033952;28;20192;-49
2022/04/05 02:01:40;;;;;;;0.00;0.00;;;;;;;5.49;60.62;98219.56;5033592;28;20189;-48
2022/04/05 02:04:09;;;;;;;0.00;0.00;;;;;;;5.51;59.53;98215.06;5030977;28;20261;-49
2022/04/05 02:06:38;;;;;;;0.00;0.00;;;;;;;5.49;60.60;98222.97;5011910;28;20669;-48
2022/04/05 02:09:05;;;;;;;0.00;0.00;;;;;;;5.45;62.42;98222.41;5013511;28;20298;-48
2022/04/05 02:11:34;;;;;;;0.00;0.00;;;;;;;5.49;60.91;98224.72;5010980;28;20188;-49
2022/04/05 02:14:09;;;;;;;0.00;0.00;;;;;;;5.48;60.32;98221.34;5012148;28;20259;-50
2022/04/05 02:16:37;;;;;;;15.10;7.37;;;;;;;5.48;60.86;98200.63;5012510;28;20242;-53
2022/04/05 02:19:06;;;;;;;11.37;6.90;;;;;;;5.46;60.72;98221.44;5012516;28;20193;-51
2022/04/05 02:21:36;;;;;;;10.13;7.00;;;;;;;5.50;60.05;98213.44;5012065;28;20678;-52
2022/04/05 02:24:04;;;;;;;10.13;6.80;;;;;;;5.46;60.44;98194.75;5011764;28;20268;-52
2022/04/05 02:26:36;;;;;;;11.03;6.73;;;;;;;5.46;60.92;98208.50;5012266;28;20656;-48
2022/04/05 02:29:04;;;;;;;10.90;6.87;;;;;;;5.46;60.14;98198.16;5013605;28;20228;-53
2022/04/05 02:31:38;;;;;;;11.67;7.30;;;;;;;5.47;60.55;98193.81;5011980;28;20718;-52
2022/04/05 02:34:07;;;;;;;9.83;6.60;;;;;;;5.51;59.84;98173.66;5011704;28;20300;-51
2022/04/05 02:36:38;;;;;;;9.33;7.10;;;;;;;5.53;59.07;98192.47;5011831;28;20219;-49
2022/04/05 02:39:08;;;;;;;13.37;7.33;;;;;;;5.53;60.32;98197.63;5011870;28;20192;-52
2022/04/05 02:41:37;;;;;;;11.47;6.60;;;;;;;5.51;59.88;98217.66;5011354;28;20197;-53
2022/04/05 02:44:06;;;;;;;10.33;6.63;;;;;;;5.54;58.00;98210.47;5011419;28;20247;-52
2022/04/05 02:46:35;;;;;;;14.33;7.13;;;;;;;5.60;58.99;98198.75;5011690;28;20247;-52
2022/04/05 02:49:06;;;;;;;11.73;7.00;;;;;;;5.57;58.06;98207.63;5011603;28;20212;-49
2022/04/05 02:51:35;;;;;;;10.00;6.83;;;;;;;5.63;57.94;98193.31;5010945;28;20677;-50
2022/04/05 02:54:10;;;;;;;10.80;6.70;;;;;;;5.64;57.67;98184.59;5010549;28;20222;-50
2022/04/05 02:56:39;;;;;;;13.20;7.10;;;;;;;5.61;57.82;98190.03;5010874;28;20200;-49
2022/04/05 02:59:06;;;;;;;12.43;7.23;;;;;;;5.60;58.12;98186.66;5010362;28;20702;-53
2022/04/05 03:01:33;;;;;;;9.63;6.50;;;;;;;5.67;58.07;98186.13;5010779;28;20207;-51
2022/04/05 03:04:07;;;;;;;14.20;6.40;;;;;;;5.67;58.21;98199.88;5010444;28;20729;-48
2022/04/05 03:06:34;;;;;;;9.13;6.97;;;;;;;5.74;58.33;98200.19;5011475;28;20279;-52
2022/04/05 03:09:01;;;;;;;10.97;7.20;;;;;;;5.70;58.01;98194.44;5011080;28;20284;-49
2022/04/05 03:11:30;;;;;;;8.97;6.80;;;;;;;5.71;57.78;98201.25;5010945;28;20193;-52
2022/04/05 03:13:57;;;;;;;11.43;6.90;;;;;;;5.65;57.99;98195.81;5010843;28;20229;-52
2022/04/05 03:16:25;;;;;;;11.43;6.77;;;;;;;5.65;58.27;98196.59;5011172;28;20556;-51
2022/04/05 03:18:54;;;;;;;11.10;7.30;;;;;;;5.65;58.37;98188.84;5011293;28;20221;-51
2022/04/05 03:21:24;;;;;;;12.70;7.03;;;;;;;5.61;59.46;98187.47;5010473;28;20192;-51
2022/04/05 03:23:51;;;;;;;13.23;6.87;;;;;;;5.58;58.66;98187.72;5010532;28;20209;-52
2022/04/05 03:26:17;;;;;;;12.57;7.47;;;;;;;5.51;61.98;98182.25;5010804;28;20292;-51
2022/04/05 03:28:46;;;;;;;13.40;7.57;;;;;;;5.42;63.32;98183.03;5010989;28;20199;-51
2022/04/05 03:31:14;;;;;;;12.07;7.13;;;;;;;5.38;63.13;98185.03;5011548;28;20211;-52
2022/04/05 03:33:44;;;;;;;8.60;6.37;;;;;;;5.35;64.71;98197.41;5010633;28;20220;-49
2022/04/05 03:36:13;;;;;;;8.67;6.80;;;;;;;5.32;64.13;98194.13;5010119;28;20220;-51
2022/04/05 03:38:42;;;;;;;14.47;6.80;;;;;;;5.24;64.50;98191.38;5012018;28;20434;-50
2022/04/05 03:41:13;;;;;;;11.70;7.37;;;;;;;5.15;65.48;98185.19;5010542;28;20276;-52
2022/04/05 03:43:42;;;;;;;12.60;7.00;;;;;;;5.10;68.31;98200.28;5010757;28;20323;-49
2022/04/05 03:46:11;;;;;;;10.93;7.10;;;;;;;5.08;65.96;98191.00;5010079;28;20195;-50
2022/04/05 03:48:38;;;;;;;13.70;7.73;;;;;;;5.09;66.91;98187.47;5010383;28;20204;-52
2022/04/05 03:51:09;;;;;;;13.27;8.17;;;;;;;4.98;68.71;98183.19;5009792;28;20224;-51
2022/04/05 03:53:39;;;;;;;12.10;8.10;;;;;;;4.92;69.92;98181.09;5009774;28;20307;-49
2022/04/05 03:56:13;;;;;;;12.10;7.33;;;;;;;4.87;71.01;98187.47;5009519;28;20193;-51
2022/04/05 03:58:41;;;;;;;13.40;7.57;;;;;;;4.80;71.54;98181.16;5009993;28;20565;-49
2022/04/05 04:01:08;;;;;;;13.17;7.57;;;;;;;4.78;73.00;98189.97;5009839;28;20201;-52
2022/04/05 04:03:35;;;;;;;10.43;7.50;;;;;;;4.76;74.03;98202.22;5009959;28;20228;-51
2022/04/05 04:06:02;;;;;;;13.90;7.63;;;;;;;4.72;74.51;98197.31;5009741;28;20192;-51
2022/04/05 04:08:29;;;;;;;13.47;9.03;;;;;;;4.72;72.31;98199.06;5019892;28;20192;-52
2022/04/05 04:10:57;;;;;;;13.47;8.13;;;;;;;4.71;73.21;98195.66;5029761;28;20639;-51
2022/04/05 04:13:29;;;;;;;12.30;7.80;;;;;;;4.66;73.22;98189.22;5029519;28;20730;-49
2022/04/05 04:16:01;;;;;;;12.57;8.30;;;;;;;4.64;73.47;98189.34;5029425;28;20188;-51
2022/04/05 04:18:30;;;;;;;11.63;7.97;;;;;;;4.62;73.43;98200.75;5029779;28;20217;-50
2022/04/05 04:20:58;;;;;;;12.63;7.60;;;;;;;4.65;72.34;98192.72;5029372;28;20199;-50
2022/04/05 04:23:26;;;;;;;13.53;8.17;;;;;;;4.66;71.91;98196.97;5029423;28;20889;-52
2022/04/05 04:25:56;;;;;;;10.47;7.67;;;;;;;4.69;72.37;98176.03;5029294;28;20671;-51
2022/04/05 04:28:23;;;;;;;10.43;7.17;;;;;;;4.72;71.90;98184.38;5029728;28;20205;-48
2022/04/05 04:30:52;;;;;;;14.57;7.30;;;;;;;4.70;73.73;98181.09;5030716;28;20216;-51
2022/04/05 04:33:18;;;;;;;13.67;8.07;;;;;;;4.67;75.83;98178.75;5030861;28;20207;-48
2022/04/05 04:35:45;;;;;;;12.50;7.83;;;;;;;4.69;74.48;98174.28;5029844;28;20188;-49
2022/04/05 04:38:15;;;;;;;12.80;7.03;;;;;;;4.67;74.50;98172.75;5030964;28;20262;-50
2022/04/05 04:40:46;;;;;;;12.07;7.60;;;;;;;4.67;74.35;98183.09;5030697;28;20187;-52
2022/04/05 04:43:14;;;;;;;13.73;7.37;;;;;;;4.66;74.08;98184.03;5030950;28;20191;-52
2022/04/05 04:45:41;;;;;;;12.67;7.40;;;;;;;4.65;74.65;98200.50;5030417;28;20186;-51
2022/04/05 04:48:09;;;;;;;9.17;6.83;;;;;;;4.66;75.15;98204.72;5029504;28;20200;-51
2022/04/05 04:50:36;;;;;;;14.40;8.47;;;;;;;4.63;74.58;98197.22;5030122;28;20295;-51
2022/04/05 04:53:03;;;;;;;12.37;7.70;;;;;;;4.65;76.49;98185.81;5030542;28;20253;-51
2022/04/05 04:55:33;;;;;;;15.10;7.70;;;;;;;4.62;76.26;98191.22;5030553;28;20191;-52
2022/04/05 04:58:00;;;;;;;12.53;7.43;;;;;;;4.58;78.27;98205.34;5027933;28;20200;-53
2022/04/05 05:00:27;;;;;;;12.30;7.77;;;;;;;4.51;79.72;98215.34;5011480;28;20188;-52
2022/04/05 05:02:53;;;;;;;10.60;7.53;;;;;;;4.51;78.89;98201.59;5010459;28;20281;-52
2022/04/05 05:05:23;;;;;;;12.43;8.30;;;;;;;4.43;79.60;98192.69;5010318;28;20208;-52
2022/04/05 05:07:51;;;;;;;14.13;8.27;;;;;;;4.40;80.25;98197.28;5010665;28;20185;-51
2022/04/05 05:10:19;;;;;;;12.17;8.33;;;;;;;4.40;82.47;98199.88;5010760;28;20218;-50
2022/04/05 05:12:46;;;;;;;14.17;8.30;;;;;;;4.40;80.89;98205.03;5011037;28;20687;-52
2022/04/05 05:15:17;;;;;;;13.48;8.50;;;;;;;4.39;81.05;98193.06;5010079;28;20439;-52
2022/04/05 05:17:45;;;;;;;13.50;8.10;;;;;;;4.37;81.76;98184.59;5010776;28;20199;-49
2022/04/05 05:20:14;;;;;;;10.83;7.80;;;;;;;4.36;81.49;98191.53;5010512;28;20177;-52
2022/04/05 05:22:42;;;;;;;12.70;8.23;;;;;;;4.40;82.18;98189.53;5010981;28;20189;-50
2022/04/05 05:25:11;;;;;;;25.97;14.37;;;;;;;4.40;81.85;98190.38;5010354;28;20723;-52
2022/04/05 05:27:38;;;;;;;15.13;8.60;;;;;;;4.42;81.94;98187.63;5009465;28;20530;-49
2022/04/05 05:30:07;;;;;;;17.17;9.60;;;;;;;4.45;80.70;98179.66;5010187;28;20204;-52
2022/04/05 05:32:42;;;;;;;10.90;7.30;;;;;;;4.44;82.25;98188.34;5010649;28;20201;-52
2022/04/05 05:35:09;;;;;;;15.23;8.87;;;;;;;4.46;81.59;98189.03;5010028;28;20243;-51
2022/04/05 05:37:36;;;;;;;19.10;9.70;;;;;;;4.49;80.30;98188.78;5010718;28;20195;-51
2022/04/05 05:40:06;;;;;;;13.33;8.33;;;;;;;4.52;82.39;98187.75;5010088;28;20216;-50
2022/04/05 05:42:33;;;;;;;10.50;7.33;;;;;;;4.55;82.29;98182.31;5010539;28;20254;-50
2022/04/05 05:45:00;;;;;;;11.82;8.20;;;;;;;4.56;81.48;98184.78;5009641;28;20438;-52
2022/04/05 05:47:27;;;;;;;9.90;7.40;;;;;;;4.58;81.03;98182.88;5013837;28;20192;-52
2022/04/05 05:49:54;;;;;;;13.97;7.93;;;;;;;4.64;80.42;98180.75;5013534;28;20219;-51
2022/04/05 05:52:24;;;;;;;11.03;7.63;;;;;;;4.61;80.74;98191.34;5012024;28;20629;-53
2022/04/05 05:54:52;;;;;;;13.20;7.53;;;;;;;4.65;81.64;98184.97;5013227;28;20758;-51
2022/04/05 05:57:20;;;;;;;12.03;7.70;;;;;;;4.62;80.96;98186.06;5013434;28;20281;-53
2022/04/05 05:59:47;;;;;;;13.10;8.03;;;;;;;4.59;81.95;98186.31;5013419;28;20197;-50
2022/04/05 06:02:14;;;;;;;12.10;8.75;;;;;;;4.62;81.13;98193.81;5013448;28;20478;-50
2022/04/05 06:04:40;;;;;;;11.60;7.57;;;;;;;4.61;80.18;98181.00;5013343;28;20224;-49
2022/04/05 06:07:07;;;;;;;14.07;7.77;;;;;;;4.64;79.93;98193.69;5022234;28;20188;-48
2022/04/05 06:09:34;;;;;;;12.43;7.37;;;;;;;4.71;80.21;98197.41;5033480;28;20203;-50
2022/04/05 06:12:01;;;;;;;11.23;7.23;;;;;;;4.73;79.54;98195.53;5033260;28;20254;-52
2022/04/05 06:14:29;;;;;;;13.27;8.77;;;;;;;4.69;80.12;98197.56;5032755;28;20572;-49
2022/04/05 06:16:55;;;;;;;13.33;8.30;;;;;;;4.74;80.01;98197.16;5033440;28;20189;-49
2022/04/05 06:19:23;;;;;;;10.87;7.23;;;;;;;4.80;78.51;98201.00;5033437;28;20192;-52
2022/04/05 06:21:49;;;;;;;13.33;7.80;;;;;;;4.83;80.58;98209.34;5032841;28;20195;-50
2022/04/05 06:24:18;;;;;;;12.57;7.23;;;;;;;4.88;77.90;98202.03;5032645;28;20529;-51
2022/04/05 06:26:45;;;;;;;10.10;6.60;;;;;;;4.91;77.53;98200.94;5013006;28;20193;-49
2022/04/05 06:29:11;;;;;;;13.20;7.10;;;;;;;4.94;77.50;98197.31;5003501;28;20654;-49
2022/04/05 06:31:40;;;;;;;12.87;7.57;;;;;;;4.99;75.49;98203.75;5002631;28;20216;-52
2022/04/05 06:34:06;;;;;;;19.37;10.10;;;;;;;5.09;76.01;98215.91;5003778;28;20295;-50
2022/04/05 06:36:33;;;;;;;21.93;12.17;;;;;;;5.15;76.52;98216.25;5002996;28;20201;-49
2022/04/05 06:39:00;;;;;;;11.43;7.80;;;;;;;5.21;76.02;98222.69;5003038;28;20195;-50
2022/04/05 06:41:27;;;;;;;17.73;8.33;;;;;;;5.30;75.24;98223.69;5003703;28;20192;-51
2022/04/05 06:43:53;;;;;;;13.73;7.50;;;;;;;5.19;74.99;98221.19;5002715;28;20205;-51
2022/04/05 06:46:22;;;;;;;12.73;8.02;;;;;;;5.29;74.73;98224.66;5001407;28;20459;-51
2022/04/05 06:48:50;;;;;;;11.20;8.27;;;;;;;5.34;75.10;98229.44;5004773;28;20188;-50
2022/04/05 06:51:18;;;;;;;12.67;8.00;;;;;;;5.49;75.90;98237.69;5012783;28;20215;-49
2022/04/05 06:53:45;;;;;;;13.00;7.57;;;;;;;5.53;76.19;98229.53;5013234;28;20212;-50
2022/04/05 06:56:11;;;;;;;12.63;7.43;;;;;;;5.80;75.42;98220.41;5012812;28;20197;-49
2022/04/05 06:58:38;;;;;;;16.00;7.47;;;;;;;5.83;74.20;98216.72;5008836;28;20296;-49
2022/04/05 07:01:05;;;;;;;9.93;6.97;;;;;;;5.96;75.33;98212.13;5011263;28;20195;-48
2022/04/05 07:03:32;;;;;;;11.50;7.00;;;;;;;5.78;75.96;98221.47;5012507;28;20260;-51
2022/04/05 07:06:00;;;;;;;10.77;7.03;;;;;;;5.77;75.52;98210.31;5021456;28;20206;-49
2022/04/05 07:08:27;;;;;;;11.30;7.10;;;;;;;5.80;74.42;98207.44;5032543;28;20180;-52
2022/04/05 07:10:54;;;;;;;11.30;6.93;;;;;;;5.85;75.03;98205.25;5032366;28;20680;-49
2022/04/05 07:13:22;;;;;;;10.33;7.00;;;;;;;5.79;75.90;98198.03;5032622;28;20288;-51
2022/04/05 07:15:48;;;;;;;11.93;6.70;;;;;;;5.78;74.97;98196.41;5032090;28;20719;-51
2022/04/05 07:18:15;;;;;;;10.90;6.40;;;;;;;5.97;75.14;98193.03;5032465;28;20601;-49
2022/04/05 07:20:42;;;;;;;12.87;6.33;;;;;;;6.00;71.43;98192.81;5032136;28;20192;-50
2022/04/05 07:23:11;;;;;;;9.97;6.33;;;;;;;5.89;73.26;98187.69;5032432;28;20187;-50
2022/04/05 07:25:38;;;;;;;9.00;5.87;;;;;;;5.89;72.42;98195.47;5032102;28;20193;-49
2022/04/05 07:28:05;;;;;;;10.33;6.87;;;;;;;5.87;73.64;98193.00;5032285;28;20191;-50
2022/04/05 07:30:32;;;;;;;13.57;6.57;;;;;;;5.85;73.04;98202.66;5030639;28;20220;-52
2022/04/05 07:32:59;;;;;;;14.13;6.57;;;;;;;5.81;72.71;98208.25;5032274;28;20196;-51
2022/04/05 07:35:26;;;;;;;11.60;6.00;;;;;;;5.84;72.77;98215.75;5031885;28;20190;-49
2022/04/05 07:37:54;;;;;;;9.00;6.03;;;;;;;5.85;71.83;98205.25;5032002;28;20184;-51
2022/04/05 07:40:22;;;;;;;12.10;6.63;;;;;;;5.91;72.27;98206.53;5031955;28;20192;-49
2022/04/05 07:42:48;;;;;;;8.90;5.97;;;;;;;6.05;71.25;98208.78;5031842;28;20188;-51
2022/04/05 07:45:16;;;;;;;15.87;6.30;;;;;;;6.02;70.62;98203.88;5031569;28;20595;-51
2022/04/05 07:47:44;;;;;;;9.83;6.13;;;;;;;6.03;71.15;98204.66;5031921;28;20788;-50
2022/04/05 07:50:11;;;;;;;10.57;5.87;;;;;;;6.12;71.74;98213.44;5031469;28;20203;-49
2022/04/05 07:52:37;;;;;;;11.13;6.27;;;;;;;6.05;71.44;98213.97;5031813;28;20216;-52
2022/04/05 07:55:06;;;;;;;9.67;6.00;;;;;;;6.16;70.72;98212.22;5031522;28;20212;-51
2022/04/05 07:57:36;;;;;;;9.30;5.93;;;;;;;6.23;72.84;98221.09;5031808;28;20199;-50
2022/04/05 08:00:05;;;;;;;9.53;5.87;;;;;;;6.26;71.98;98210.47;5031618;28;20188;-53
2022/04/05 08:02:39;;;;;;;12.30;6.13;;;;;;;6.44;73.51;98212.38;5031501;28;20234;-49
2022/04/05 08:05:07;;;;;;;9.07;5.50;;;;;;;6.43;73.72;98205.56;5031262;28;20216;-49
2022/04/05 08:07:33;;;;;;;16.77;8.90;;;;;;;6.55;72.87;98220.03;5031629;28;20192;-50
2022/04/05 08:10:00;;;;;;;12.77;6.60;;;;;;;6.64;72.96;98219.22;5030360;28;20180;-51
2022/04/05 08:12:27;;;;;;;9.47;5.63;;;;;;;6.62;73.23;98217.75;5031579;28;20215;-49
2022/04/05 08:14:54;;;;;;;9.10;5.80;;;;;;;6.52;74.20;98211.72;5030951;28;20722;-52
2022/04/05 08:17:21;;;;;;;11.00;6.30;;;;;;;6.62;73.66;98215.94;5029904;28;20199;-50
2022/04/05 08:19:48;;;;;;;8.90;5.50;;;;;;;6.66;73.56;98211.34;5031275;28;20565;-49
2022/04/05 08:22:15;;;;;;;9.60;5.50;;;;;;;6.41;73.78;98223.03;5031528;28;20181;-49
2022/04/05 08:24:42;;;;;;;11.43;5.60;;;;;;;6.65;73.53;98212.28;5030831;28;20249;-50
2022/04/05 08:27:08;;;;;;;8.87;5.97;;;;;;;6.97;72.75;98221.53;5031423;28;20319;-51
2022/04/05 08:29:40;;;;;;;15.30;8.07;;;;;;;7.15;73.67;98226.03;5030981;28;20267;-49
2022/04/05 08:32:08;;;;;;;12.97;7.63;;;;;;;7.18;73.29;98213.63;5031226;28;20221;-51
2022/04/05 08:34:35;;;;;;;9.57;6.17;;;;;;;6.88;75.04;98236.19;5030853;28;20564;-50
2022/04/05 08:37:01;;;;;;;10.33;6.17;;;;;;;7.12;72.84;98226.31;5031188;28;20184;-52
2022/04/05 08:39:28;;;;;;;9.67;6.17;;;;;;;6.89;73.10;98230.03;5031394;28;20196;-50
2022/04/05 08:41:56;;;;;;;12.63;6.10;;;;;;;6.89;72.70;98235.22;5030988;28;20191;-51
2022/04/05 08:44:24;;;;;;;10.87;7.50;;;;;;;6.77;75.03;98234.53;5030811;28;20278;-51
2022/04/05 08:46:51;;;;;;;10.03;6.43;;;;;;;6.79;74.51;98232.63;5031116;28;20211;-50
2022/04/05 08:49:21;;;;;;;8.23;5.77;;;;;;;6.65;74.04;98230.44;5031168;28;20188;-51
2022/04/05 08:51:47;;;;;;;10.17;6.53;;;;;;;6.68;75.38;98230.16;5030812;28;20695;-52
2022/04/05 08:54:14;;;;;;;9.73;6.10;;;;;;;6.49;76.07;98239.56;5030629;28;20687;-52
2022/04/05 08:56:41;;;;;;;12.53;6.40;;;;;;;6.45;76.07;98235.59;5030765;28;20693;-51
2022/04/05 08:59:08;;;;;;;12.00;6.93;;;;;;;6.50;77.59;98238.59;5019940;28;20207;-50
2022/04/05 09:01:35;;;;;;;8.20;6.07;;;;;;;6.47;76.91;98238.03;5010457;28;20193;-51
2022/04/05 09:04:02;;;;;;;10.03;6.70;;;;;;;6.58;76.97;98230.16;5010051;28;20553;-52
2022/04/05 09:06:33;;;;;;;10.90;6.50;;;;;;;6.49;76.23;98230.94;5028785;28;20192;-50
2022/04/05 09:09:07;;;;;;;9.63;6.07;;;;;;;6.38;76.20;98233.66;5030844;28;20275;-52
2022/04/05 09:11:34;;;;;;;11.63;6.13;;;;;;;6.43;76.08;98237.50;5030383;28;20687;-52
2022/04/05 09:14:02;;;;;;;8.87;6.07;;;;;;;6.59;75.29;98223.19;5030148;28;20307;-52
2022/04/05 09:16:32;;;;;;;9.50;5.70;;;;;;;6.48;74.33;98226.72;5030716;28;20192;-50
2022/04/05 09:19:00;;;;;;;8.70;5.67;;;;;;;6.74;74.63;98213.22;5030828;28;20188;-50
2022/04/05 09:21:27;;;;;;;9.03;5.93;;;;;;;6.82;74.20;98223.75;5032600;28;20188;-50
2022/04/05 09:24:07;;;;;;;13.00;6.10;;;;;;;6.77;74.19;98233.72;5034197;28;20240;-49
2022/04/05 09:26:43;;;;;;;8.10;5.33;;;;;;;6.90;73.73;98228.25;5034685;28;20269;-51
2022/04/05 09:29:11;;;;;;;9.37;5.47;;;;;;;6.87;73.54;98223.34;5034627;28;20184;-53
2022/04/05 09:31:49;;;;;;;9.13;5.73;;;;;;;6.78;74.19;98225.81;5034136;28;20208;-51
2022/04/05 09:34:19;;;;;;;10.03;5.80;;;;;;;6.85;74.66;98225.25;5033724;28;20204;-52
2022/04/05 09:36:48;;;;;;;8.70;5.60;;;;;;;6.87;72.85;98228.53;5024210;28;20258;-51
2022/04/05 09:39:21;;;;;;;9.53;5.70;;;;;;;6.81;71.80;98227.28;5017178;28;20204;-52
2022/04/05 09:41:52;;;;;;;10.10;5.50;;;;;;;6.84;71.86;98228.81;5020731;28;20198;-51
2022/04/05 09:44:27;;;;;;;10.10;6.20;;;;;;;6.83;73.79;98222.78;5023380;28;20659;-53
2022/04/05 09:47:03;;;;;;;8.57;6.10;;;;;;;6.83;71.80;98224.56;5024349;28;20433;-50
2022/04/05 09:49:34;;;;;;;8.63;5.87;;;;;;;6.96;71.88;98222.50;5024015;28;20400;-50
2022/04/05 09:52:02;;;;;;;8.63;5.77;;;;;;;7.03;70.90;98225.38;5025283;28;20292;-49
2022/04/05 09:54:32;;;;;;;9.00;5.20;;;;;;;7.19;69.70;98228.22;5024242;28;20210;-50
2022/04/05 09:57:07;;;;;;;10.00;5.57;;;;;;;7.22;70.24;98224.53;5022572;28;20192;-54
2022/04/05 09:59:39;;;;;;;9.10;6.40;;;;;;;7.38;69.01;98237.75;5026332;28;20204;-53
2022/04/05 10:02:11;;;;;;;11.10;6.73;;;;;;;7.41;68.78;98239.28;5025227;28;20197;-53
2022/04/05 10:04:59;;;;;;;9.23;5.50;;;;;;;7.48;68.27;98242.91;5023522;28;20219;-52
2022/04/05 10:07:28;;;;;;;8.50;6.60;;;;;;;7.53;69.05;98245.09;5010140;28;20272;-53
2022/04/05 10:09:58;;;;;;;10.23;5.47;;;;;;;7.45;69.29;98245.78;5013801;28;20193;-53
2022/04/05 10:12:25;;;;;;;10.27;5.03;;;;;;;7.36;67.52;98241.47;5014263;28;20218;-51
2022/04/05 10:14:51;;;;;;;11.83;5.60;;;;;;;7.39;69.44;98249.78;5013884;28;20214;-54
2022/04/05 10:17:19;;;;;;;11.17;6.50;;;;;;;7.36;68.47;98244.06;5014100;28;20281;-52
2022/04/05 10:19:49;;;;;;;8.17;5.70;;;;;;;7.33;68.99;98249.53;5013808;28;20244;-52
2022/04/05 10:22:18;;;;;;;10.80;5.87;;;;;;;7.67;68.59;98249.03;5013844;28;20193;-51
2022/04/05 10:24:46;;;;;;;10.70;5.63;;;;;;;7.76;66.75;98250.78;5013498;28;20205;-52
2022/04/05 10:27:15;;;;;;;7.40;5.37;;;;;;;8.07;66.77;98247.09;5013830;28;20245;-53
2022/04/05 10:29:43;;;;;;;27.17;13.60;;;;;;;7.88;68.58;98256.63;5013583;28;20232;-53
2022/04/05 10:32:19;;;;;;;9.83;6.37;;;;;;;7.64;68.50;98249.31;5012983;28;20209;-53
2022/04/05 10:34:50;;;;;;;9.87;6.53;;;;;;;7.73;68.11;98263.25;5013127;28;20209;-53
2022/04/05 10:37:18;;;;;;;9.03;6.17;;;;;;;7.85;68.13;98258.69;5013797;28;20198;-53
2022/04/05 10:40:23;;;;;;;8.37;5.77;;;;;;;7.60;68.17;98264.38;5013421;28;20185;-53
2022/04/05 10:42:53;;;;;;;8.70;5.70;;;;;;;7.77;68.20;98275.78;5003688;28;20216;-53
2022/04/05 10:45:21;;;;;;;11.97;6.23;;;;;;;7.74;69.80;98259.69;5002240;28;20263;-53
2022/04/05 10:48:13;;;;;;;9.23;6.17;;;;;;;7.69;70.82;98254.91;5002726;28;20200;-57
2022/04/05 10:50:41;;;;;;;8.40;6.10;;;;;;;7.86;70.76;98271.53;4990357;28;20207;-56
2022/04/05 10:53:17;;;;;;;10.37;6.63;;;;;;;8.03;70.83;98243.13;5009456;28;20597;-52
2022/04/05 10:56:14;;;;;;;14.60;6.57;;;;;;;8.06;70.44;98248.03;5012829;28;20223;-54
2022/04/05 10:59:10;;;;;;;11.63;7.17;;;;;;;8.02;69.83;98255.31;5011341;28;20193;-52
2022/04/05 11:01:43;;;;;;;11.57;7.27;;;;;;;7.85;70.93;98253.47;5010750;28;20661;-54
2022/04/05 11:04:31;;;;;;;9.90;6.33;;;;;;;7.97;72.06;98253.16;5011634;28;20217;-50
2022/04/05 11:07:12;;;;;;;9.53;6.47;;;;;;;8.05;74.39;98249.84;5003812;28;20245;-50
2022/04/05 11:09:46;;;;;;;15.27;7.53;;;;;;;7.90;72.94;98259.06;5003525;28;20188;-50
2022/04/05 11:12:18;;;;;;;8.23;5.87;;;;;;;7.74;73.65;98263.09;5002717;28;20260;-51
2022/04/05 11:14:49;;;;;;;11.10;6.70;;;;;;;7.79;72.88;98253.09;5001189;28;20213;-51
2022/04/05 11:17:18;;;;;;;10.63;6.57;;;;;;;7.67;72.72;98242.06;5005235;28;20208;-55
2022/04/05 11:19:47;;;;;;;9.87;6.53;;;;;;;7.90;74.29;98246.06;5012044;28;20205;-57
2022/04/05 11:22:28;;;;;;;11.60;6.83;;;;;;;8.19;70.71;98245.94;5012506;28;20199;-56
2022/04/05 11:24:56;;;;;;;12.33;7.27;;;;;;;7.90;72.76;98249.50;5015733;28;20588;-53
2022/04/05 11:27:28;;;;;;;9.87;7.40;;;;;;;7.99;72.45;98240.03;5018139;28;20255;-53
2022/04/05 11:30:37;;;;;;;12.97;7.10;;;;;;;7.81;73.41;98247.75;5007461;28;20295;-55
2022/04/05 11:33:22;;;;;;;10.83;6.77;;;;;;;8.02;73.37;98251.91;5008711;28;20213;-54
2022/04/05 11:35:50;;;;;;;11.90;6.40;;;;;;;7.87;71.98;98254.16;5003071;28;20212;-54
2022/04/05 11:38:29;;;;;;;13.53;8.30;;;;;;;8.09;72.61;98237.34;5018088;22;20223;-58
2022/04/05 11:40:58;;;;;;;12.63;8.27;;;;;;;7.97;73.18;98242.75;4989197;28;20264;-58
2022/04/05 11:43:27;;;;;;;18.63;9.67;;;;;;;7.77;75.24;98236.81;4992016;28;20189;-57
2022/04/05 11:45:56;;;;;;;13.73;7.07;;;;;;;7.83;74.74;98228.44;4991266;28;20202;-58